Time;durP1;ratioP1;P1;durP2;ratioP2;P2;SDS_P1;SDS_P2;PMS_P1;PMS_P2;Temp;Humidity;BMP_temperature;BMP_pressure;BME280_temperature;BME280_humidity;BME280_pressure;Samples;Min_cycle;Max_cycle;Signal;HPM_P1;HPM_P2
2022/02/23 00:00:58;;;;;;;34.45;16.77;;;;;;;-0.63;82.91;99895.13;1704951;84;25676;-72
2022/02/23 00:03:25;;;;;;;35.73;17.17;;;;;;;-0.60;83.16;99893.82;1705075;84;25412;-71
2022/02/23 00:05:51;;;;;;;31.35;16.70;;;;;;;-0.59;83.15;99889.59;1704808;84;28010;-71
2022/02/23 00:08:18;;;;;;;30.17;18.15;;;;;;;-0.55;83.16;99892.56;1682412;84;25633;-72
2022/02/23 00:10:44;;;;;;;39.05;17.82;;;;;;;-0.53;83.17;99883.02;1705055;84;25555;-72
2022/02/23 00:13:11;;;;;;;33.80;17.27;;;;;;;-0.52;83.13;99880.13;1704758;84;25769;-71
2022/02/23 00:15:37;;;;;;;40.85;18.80;;;;;;;-0.53;82.82;99874.52;1705000;84;25428;-72
2022/02/23 00:18:04;;;;;;;39.20;18.52;;;;;;;-0.50;82.79;99871.91;1705096;84;27366;-72
2022/02/23 00:20:30;;;;;;;40.78;19.07;;;;;;;-0.52;83.12;99868.17;1682237;84;25456;-73
2022/02/23 00:22:57;;;;;;;39.13;18.67;;;;;;;-0.51;82.99;99863.14;1704974;84;25510;-71
2022/02/23 00:25:23;;;;;;;39.75;19.45;;;;;;;-0.52;83.02;99863.39;1704342;84;26311;-72
2022/02/23 00:27:50;;;;;;;40.45;20.27;;;;;;;-0.55;83.15;99867.32;1704833;84;25427;-72
2022/02/23 00:30:16;;;;;;;44.70;20.35;;;;;;;-0.58;83.15;99856.67;1683285;82;27407;-71
2022/02/23 00:32:43;;;;;;;41.98;20.23;;;;;;;-0.61;83.12;99867.79;1706315;83;25667;-71
2022/02/23 00:35:09;;;;;;;38.73;19.98;;;;;;;-0.61;83.35;99860.35;1706307;84;25778;-71
2022/02/23 00:37:35;;;;;;;46.23;20.43;;;;;;;-0.64;83.41;99860.30;1706357;84;25624;-71
2022/02/23 00:40:03;;;;;;;43.80;20.85;;;;;;;-0.66;83.34;99864.27;1706429;84;25604;-71
2022/02/23 00:42:29;;;;;;;48.40;22.65;;;;;;;-0.66;83.59;99863.73;1714790;82;27418;-71
2022/02/23 00:44:56;;;;;;;43.45;21.57;;;;;;;-0.67;83.85;99858.66;1728174;83;25688;-71
2022/02/23 00:47:23;;;;;;;44.25;20.45;;;;;;;-0.68;84.25;99853.88;1728309;83;25667;-72
2022/02/23 00:49:50;;;;;;;45.90;21.35;;;;;;;-0.70;84.24;99851.97;1728035;83;25703;-71
2022/02/23 00:52:16;;;;;;;47.27;23.15;;;;;;;-0.72;84.22;99850.63;1728362;83;25685;-72
2022/02/23 00:54:43;;;;;;;47.00;23.12;;;;;;;-0.71;84.67;99845.61;1728065;83;27470;-71
2022/02/23 00:57:09;;;;;;;40.95;21.20;;;;;;;-0.73;84.53;99841.04;1728111;83;25573;-71
2022/02/23 00:59:36;;;;;;;45.80;21.05;;;;;;;-0.73;84.48;99839.70;1728271;83;25609;-72
2022/02/23 01:02:04;;;;;;;45.58;20.97;;;;;;;-0.74;84.89;99830.95;1728335;83;25556;-72
2022/02/23 01:04:31;;;;;;;40.23;20.70;;;;;;;-0.76;84.67;99837.03;1728066;83;25427;-71
2022/02/23 01:06:57;;;;;;;45.58;21.35;;;;;;;-0.77;84.98;99830.93;1705909;83;27334;-71
2022/02/23 01:09:24;;;;;;;47.95;21.35;;;;;;;-0.77;84.67;99830.10;1728331;83;25770;-71
2022/02/23 01:11:50;;;;;;;40.83;20.23;;;;;;;-0.77;84.87;99828.27;1728098;83;25573;-72
2022/02/23 01:14:17;;;;;;;42.45;20.08;;;;;;;-0.78;84.81;99824.53;1728429;83;26298;-70
2022/02/23 01:16:43;;;;;;;35.63;18.37;;;;;;;-0.79;84.82;99823.70;1728269;83;25676;-71
2022/02/23 01:19:10;;;;;;;40.17;19.82;;;;;;;-0.79;84.76;99823.70;1728553;83;27358;-71
2022/02/23 01:21:36;;;;;;;43.80;20.72;;;;;;;-0.79;85.26;99813.62;1728500;83;25581;-71
2022/02/23 01:24:03;;;;;;;40.43;20.08;;;;;;;-0.80;85.04;99811.50;1728548;83;25593;-71
2022/02/23 01:26:30;;;;;;;44.95;19.60;;;;;;;-0.78;85.07;99803.28;1728531;83;25685;-70
2022/02/23 01:28:57;;;;;;;36.58;18.70;;;;;;;-0.79;85.17;99802.99;1705725;83;25654;-70
2022/02/23 01:31:24;;;;;;;41.73;19.00;;;;;;;-0.79;85.21;99798.48;1728503;83;27885;-71
2022/02/23 01:33:51;;;;;;;43.02;17.85;;;;;;;-0.80;84.95;99810.16;1728420;83;25672;-72
2022/02/23 01:36:17;;;;;;;35.45;17.82;;;;;;;-0.80;85.02;99803.52;1728618;83;25612;-71
2022/02/23 01:38:44;;;;;;;35.73;18.45;;;;;;;-0.81;85.17;99796.59;1728507;83;26291;-71
2022/02/23 01:41:11;;;;;;;36.70;17.80;;;;;;;-0.81;85.30;99795.27;1728625;83;25604;-71
2022/02/23 01:43:38;;;;;;;35.63;16.95;;;;;;;-0.82;85.25;99789.70;1730690;82;27459;-71
2022/02/23 01:46:05;;;;;;;38.10;16.42;;;;;;;-0.81;85.62;99795.80;1731591;82;25568;-71
2022/02/23 01:48:31;;;;;;;38.25;17.67;;;;;;;-0.81;85.77;99791.81;1731656;82;25464;-72
2022/02/23 01:50:58;;;;;;;34.18;18.27;;;;;;;-0.83;85.78;99777.98;1731614;82;25706;-71
2022/02/23 01:53:24;;;;;;;41.23;17.60;;;;;;;-0.82;85.85;99772.44;1731673;82;25575;-72
2022/02/23 01:55:51;;;;;;;34.53;16.23;;;;;;;-0.83;85.87;99770.81;1731719;82;27390;-72
2022/02/23 01:58:17;;;;;;;35.68;16.48;;;;;;;-0.82;86.13;99764.47;1732042;82;25225;-71
2022/02/23 02:00:44;;;;;;;30.88;16.52;;;;;;;-0.81;86.17;99762.08;1731937;82;25473;-71
2022/02/23 02:03:12;;;;;;;38.35;15.65;;;;;;;-0.79;86.08;99773.78;1731541;82;25675;-71
2022/02/23 02:05:38;;;;;;;34.38;15.98;;;;;;;-0.79;86.27;99775.11;1731634;82;25628;-71
2022/02/23 02:08:05;;;;;;;34.25;15.98;;;;;;;-0.77;86.19;99771.17;1731568;82;27335;-71
2022/02/23 02:10:32;;;;;;;36.23;16.42;;;;;;;-0.75;86.17;99772.22;1731482;82;25479;-72
2022/02/23 02:12:58;;;;;;;39.08;16.85;;;;;;;-0.76;86.84;99775.41;1731569;82;25494;-72
2022/02/23 02:15:25;;;;;;;33.02;15.32;;;;;;;-0.74;86.46;99763.22;1731557;82;25632;-72
2022/02/23 02:17:51;;;;;;;37.03;16.23;;;;;;;-0.73;86.88;99756.87;1731551;82;25393;-70
2022/02/23 02:20:18;;;;;;;34.98;15.13;;;;;;;-0.71;87.12;99753.97;1731578;82;27342;-71
2022/02/23 02:22:45;;;;;;;37.85;15.88;;;;;;;-0.70;87.25;99762.20;1731496;82;25446;-71
2022/02/23 02:25:11;;;;;;;36.93;16.62;;;;;;;-0.68;87.25;99752.95;1731583;82;25617;-71
2022/02/23 02:27:38;;;;;;;33.23;16.10;;;;;;;-0.65;87.05;99759.60;1731538;82;25680;-71
2022/02/23 02:30:06;;;;;;;37.95;16.25;;;;;;;-0.63;87.09;99750.86;1731566;82;25466;-71
2022/02/23 02:32:33;;;;;;;40.05;15.20;;;;;;;-0.60;87.21;99749.83;1731565;82;27949;-72
2022/02/23 02:35:01;;;;;;;35.52;15.70;;;;;;;-0.58;87.00;99745.60;1731458;82;25588;-72
2022/02/23 02:37:28;;;;;;;33.38;15.23;;;;;;;-0.54;87.35;99739.29;1731591;82;25463;-72
2022/02/23 02:39:54;;;;;;;34.65;14.03;;;;;;;-0.52;87.35;99743.29;1731513;82;25621;-72
2022/02/23 02:42:21;;;;;;;32.23;14.85;;;;;;;-0.49;87.36;99742.00;1731397;82;25616;-72
2022/02/23 02:44:47;;;;;;;33.08;14.73;;;;;;;-0.45;87.37;99747.09;1727918;83;27512;-72
2022/02/23 02:47:14;;;;;;;32.05;14.25;;;;;;;-0.41;87.70;99742.87;1727810;83;25660;-71
2022/02/23 02:49:41;;;;;;;34.55;14.40;;;;;;;-0.38;87.74;99735.20;1727856;83;25537;-70
2022/02/23 02:52:07;;;;;;;37.45;15.03;;;;;;;-0.35;87.68;99725.14;1703178;83;25856;-71
2022/02/23 02:54:36;;;;;;;42.73;15.83;;;;;;;-0.31;87.64;99714.27;1727908;83;25478;-71
2022/02/23 02:57:04;;;;;;;37.10;14.68;;;;;;;-0.29;88.03;99714.31;1727967;83;27330;-72
2022/02/23 02:59:31;;;;;;;30.10;14.30;;;;;;;-0.26;87.84;99716.98;1727843;83;25558;-72
2022/02/23 03:01:57;;;;;;;28.50;12.90;;;;;;;-0.24;87.77;99720.19;1727906;83;25579;-72
2022/02/23 03:04:24;;;;;;;27.87;13.15;;;;;;;-0.21;87.79;99719.15;1727906;83;25575;-72
2022/02/23 03:06:51;;;;;;;34.30;13.58;;;;;;;-0.17;87.67;99713.34;1727986;83;25547;-72
2022/02/23 03:09:17;;;;;;;30.55;13.70;;;;;;;-0.14;87.57;99720.81;1727979;83;27921;-71
2022/02/23 03:11:44;;;;;;;30.35;12.30;;;;;;;-0.10;87.63;99718.73;1727900;83;25479;-72
2022/02/23 03:14:10;;;;;;;34.63;13.55;;;;;;;-0.07;87.56;99708.94;1727927;83;25441;-72
2022/02/23 03:16:37;;;;;;;30.90;13.20;;;;;;;-0.05;87.88;99704.16;1727915;83;25693;-72
2022/02/23 03:19:03;;;;;;;26.82;13.72;;;;;;;-0.02;87.52;99700.18;1728004;82;25460;-72
2022/02/23 03:21:30;;;;;;;27.75;12.90;;;;;;;0.01;87.49;99698.89;1727952;83;27928;-72
2022/02/23 03:23:57;;;;;;;33.13;13.78;;;;;;;0.03;87.42;99696.77;1727834;83;25394;-71
2022/02/23 03:26:23;;;;;;;30.77;13.62;;;;;;;0.04;87.38;99695.73;1728041;83;25481;-72
2022/02/23 03:28:50;;;;;;;31.97;13.08;;;;;;;0.06;87.30;99692.28;1728022;83;25703;-72
2022/02/23 03:31:16;;;;;;;28.98;12.65;;;;;;;0.08;87.19;99684.84;1728043;83;25630;-72
2022/02/23 03:33:43;;;;;;;30.57;11.78;;;;;;;0.10;87.21;99692.03;1728022;83;27353;-72
2022/02/23 03:36:13;;;;;;;31.62;11.38;;;;;;;0.13;87.26;99685.67;1727908;83;25532;-71
2022/02/23 03:38:41;;;;;;;31.25;11.78;;;;;;;0.14;87.25;99685.96;1726705;83;25416;-72
2022/02/23 03:41:08;;;;;;;30.12;11.10;;;;;;;0.17;87.28;99684.63;1727942;83;25625;-72
2022/02/23 03:43:34;;;;;;;28.45;10.82;;;;;;;0.18;87.27;99684.38;1728038;83;25570;-71
2022/02/23 03:46:01;;;;;;;29.07;10.70;;;;;;;0.23;87.39;99684.95;1728177;83;27307;-70
2022/02/23 03:48:28;;;;;;;28.85;10.85;;;;;;;0.24;87.37;99681.77;1727993;83;25478;-72
2022/02/23 03:50:54;;;;;;;27.17;10.55;;;;;;;0.27;87.42;99683.92;1728077;83;25479;-72
2022/02/23 03:53:21;;;;;;;30.52;11.03;;;;;;;0.28;87.40;99677.55;1728016;83;25710;-71
2022/02/23 03:55:47;;;;;;;26.68;10.20;;;;;;;0.30;87.62;99678.88;1728179;83;25557;-71
2022/02/23 03:58:14;;;;;;;29.23;10.40;;;;;;;0.33;87.60;99677.58;1728090;83;27315;-71
2022/02/23 04:00:42;;;;;;;28.85;10.23;;;;;;;0.36;87.53;99679.73;1727989;83;25674;-71
2022/02/23 04:03:09;;;;;;;31.65;10.08;;;;;;;0.40;87.43;99689.34;1728108;82;25425;-71
2022/02/23 04:05:35;;;;;;;30.57;9.15;;;;;;;0.42;87.38;99678.70;1728056;82;25664;-71
2022/02/23 04:08:02;;;;;;;29.32;9.03;;;;;;;0.45;87.32;99670.20;1728104;83;25243;-71
2022/02/23 04:10:28;;;;;;;31.73;10.00;;;;;;;0.48;87.32;99675.02;1728025;82;27847;-71
2022/02/23 04:12:55;;;;;;;26.07;9.75;;;;;;;0.51;87.23;99662.54;1727941;83;25598;-71
2022/02/23 04:15:21;;;;;;;24.95;10.05;;;;;;;0.55;87.09;99668.14;1727967;83;25459;-72
2022/02/23 04:17:48;;;;;;;23.22;9.83;;;;;;;0.59;87.15;99664.44;1727940;83;25638;-72
2022/02/23 04:20:14;;;;;;;23.22;8.85;;;;;;;0.62;87.03;99670.58;1728034;83;25392;-70
2022/02/23 04:22:42;;;;;;;25.70;8.43;;;;;;;0.64;87.06;99662.59;1727996;83;27903;-71
2022/02/23 04:25:10;;;;;;;20.82;8.80;;;;;;;0.66;87.19;99664.45;1727908;83;25495;-71
2022/02/23 04:27:36;;;;;;;24.02;8.70;;;;;;;0.69;86.97;99659.16;1728013;83;25454;-71
2022/02/23 04:30:06;;;;;;;29.07;10.35;;;;;;;0.71;86.88;99656.50;1727976;83;25597;-72
2022/02/23 04:32:33;;;;;;;23.18;8.78;;;;;;;0.73;86.86;99658.39;1703537;83;32973;-72
2022/02/23 04:35:00;;;;;;;27.35;8.65;;;;;;;0.76;86.80;99655.73;1727962;83;27393;-72
2022/02/23 04:37:29;;;;;;;23.42;9.03;;;;;;;0.78;86.70;99653.61;1727951;83;25641;-72
2022/02/23 04:39:58;;;;;;;24.92;10.45;;;;;;;0.81;86.65;99646.44;1728151;82;25562;-71
2022/02/23 04:42:24;;;;;;;22.05;7.67;;;;;;;0.81;86.60;99645.10;1728029;82;26420;-72
2022/02/23 04:44:50;;;;;;;22.95;8.83;;;;;;;0.84;86.68;99643.80;1728018;82;25620;-73
2022/02/23 04:47:17;;;;;;;27.02;7.90;;;;;;;0.85;86.57;99636.88;1728047;83;27008;-71
2022/02/23 04:49:43;;;;;;;25.80;10.03;;;;;;;0.87;86.79;99633.94;1727981;83;25644;-71
2022/02/23 04:52:10;;;;;;;26.60;8.63;;;;;;;0.89;86.57;99635.29;1728320;83;25388;-72
2022/02/23 04:54:38;;;;;;;25.15;8.93;;;;;;;0.90;86.71;99632.09;1728657;82;26274;-71
2022/02/23 04:57:05;;;;;;;27.20;8.48;;;;;;;0.93;86.59;99635.56;1728183;83;25645;-71
2022/02/23 04:59:32;;;;;;;29.70;9.75;;;;;;;0.95;86.56;99629.98;1727951;83;27402;-72
2022/02/23 05:01:58;;;;;;;24.32;9.10;;;;;;;0.97;86.51;99628.67;1728000;83;25621;-72
2022/02/23 05:04:25;;;;;;;24.87;9.20;;;;;;;0.99;86.48;99621.22;1727978;83;25625;-70
2022/02/23 05:06:51;;;;;;;25.45;9.95;;;;;;;1.00;86.59;99616.14;1727872;83;26174;-71
2022/02/23 05:09:18;;;;;;;28.00;10.48;;;;;;;1.03;86.45;99624.16;1727975;83;25694;-72
2022/02/23 05:11:45;;;;;;;24.80;8.68;;;;;;;1.03;86.45;99614.30;1727980;83;27337;-72
2022/02/23 05:14:11;;;;;;;25.30;9.28;;;;;;;1.06;86.46;99623.09;1727847;83;25646;-71
2022/02/23 05:16:38;;;;;;;23.10;8.35;;;;;;;1.07;86.38;99627.37;1728031;83;25392;-72
2022/02/23 05:19:04;;;;;;;18.95;7.87;;;;;;;1.09;86.32;99619.91;1727978;83;25661;-71
2022/02/23 05:21:31;;;;;;;29.72;8.40;;;;;;;1.10;86.36;99620.70;1728009;83;25517;-71
2022/02/23 05:23:57;;;;;;;27.30;9.35;;;;;;;1.12;86.42;99626.56;1703342;83;27341;-71
2022/02/23 05:26:24;;;;;;;23.07;8.83;;;;;;;1.11;86.51;99627.11;1727943;83;25435;-72
2022/02/23 05:28:50;;;;;;;20.82;8.53;;;;;;;1.11;86.80;99613.00;1727957;83;25635;-72
2022/02/23 05:31:16;;;;;;;26.55;9.68;;;;;;;1.11;86.70;99617.78;1701861;83;25649;-72
2022/02/23 05:33:43;;;;;;;24.90;8.85;;;;;;;1.10;86.86;99614.84;1728016;83;25461;-72
2022/02/23 05:36:09;;;;;;;29.37;9.60;;;;;;;1.10;87.32;99608.18;1703260;83;27337;-72
2022/02/23 05:38:36;;;;;;;26.60;8.60;;;;;;;1.10;87.16;99612.72;1701954;83;25625;-72
2022/02/23 05:41:03;;;;;;;31.05;9.28;;;;;;;1.09;87.56;99606.59;1727983;83;25299;-73
2022/02/23 05:43:31;;;;;;;29.87;10.00;;;;;;;1.11;87.56;99610.33;1727298;83;25642;-72
2022/02/23 05:45:58;;;;;;;27.32;9.63;;;;;;;1.11;87.74;99610.33;1719246;83;25633;-72
2022/02/23 05:48:25;;;;;;;22.35;9.13;;;;;;;1.10;88.40;99611.38;1719169;83;27308;-71
2022/02/23 05:50:52;;;;;;;26.65;10.03;;;;;;;1.09;88.15;99599.94;1719074;83;25640;-71
2022/02/23 05:53:18;;;;;;;34.25;9.93;;;;;;;1.10;88.85;99604.73;1719201;83;25219;-72
2022/02/23 05:55:45;;;;;;;29.35;10.08;;;;;;;1.10;88.59;99598.86;1719117;83;26279;-71
2022/02/23 05:58:11;;;;;;;33.70;10.85;;;;;;;1.10;88.63;99592.20;1719219;83;25552;-73
2022/02/23 06:00:38;;;;;;;27.77;9.43;;;;;;;1.11;89.09;99595.14;1719173;83;28037;-72
2022/02/23 06:03:09;;;;;;;26.45;9.93;;;;;;;1.12;89.06;99598.59;1719102;83;25675;-72
2022/02/23 06:05:36;;;;;;;23.55;10.00;;;;;;;1.15;89.20;99602.61;1719219;83;25612;-72
2022/02/23 06:08:04;;;;;;;27.22;11.12;;;;;;;1.17;89.09;99603.94;1719203;83;25641;-71
2022/02/23 06:10:30;;;;;;;19.23;10.05;;;;;;;1.18;89.27;99601.55;1719389;83;25626;-72
2022/02/23 06:12:57;;;;;;;18.95;10.10;;;;;;;1.18;89.54;99597.55;1719415;83;27932;-71
2022/02/23 06:15:23;;;;;;;26.95;12.68;;;;;;;1.21;89.77;99598.88;1719152;83;25731;-72
2022/02/23 06:17:50;;;;;;;24.07;11.40;;;;;;;1.21;90.53;99603.69;1719284;83;25588;-72
2022/02/23 06:20:17;;;;;;;25.50;10.50;;;;;;;1.21;90.16;99598.88;1719244;83;26243;-72
2022/02/23 06:22:44;;;;;;;27.10;10.88;;;;;;;1.23;90.25;99600.77;1719336;83;25573;-71
2022/02/23 06:25:10;;;;;;;28.85;10.68;;;;;;;1.24;90.28;99609.02;1719268;83;27493;-71
2022/02/23 06:27:37;;;;;;;20.90;10.15;;;;;;;1.27;90.39;99604.50;1719204;83;25525;-72
2022/02/23 06:30:05;;;;;;;25.95;11.18;;;;;;;1.27;90.39;99605.28;1719136;83;25549;-72
2022/02/23 06:32:32;;;;;;;30.15;11.48;;;;;;;1.31;90.46;99612.22;1719276;83;25636;-72
2022/02/23 06:34:58;;;;;;;22.48;11.30;;;;;;;1.33;90.61;99607.45;1719206;83;25408;-71
2022/02/23 06:37:25;;;;;;;18.95;10.05;;;;;;;1.34;91.35;99614.36;1719181;83;28021;-71
2022/02/23 06:39:54;;;;;;;22.55;11.08;;;;;;;1.37;90.88;99621.04;1719104;83;25420;-72
2022/02/23 06:42:21;;;;;;;21.85;11.95;;;;;;;1.38;90.77;99618.11;1719179;83;25568;-72
2022/02/23 06:44:48;;;;;;;26.07;11.40;;;;;;;1.42;91.36;99625.84;1723158;82;26188;-72
2022/02/23 06:47:16;;;;;;;25.25;12.15;;;;;;;1.44;91.59;99626.37;1727964;83;25614;-72
2022/02/23 06:49:43;;;;;;;25.95;11.38;;;;;;;1.47;91.72;99631.17;1727923;83;27333;-72
2022/02/23 06:52:11;;;;;;;21.10;11.18;;;;;;;1.51;91.83;99627.98;1727837;83;25638;-72
2022/02/23 06:54:38;;;;;;;21.05;10.60;;;;;;;1.55;93.08;99636.53;1727941;83;25631;-72
2022/02/23 06:57:08;;;;;;;21.50;10.88;;;;;;;1.60;92.54;99637.87;1727913;83;25601;-72
2022/02/23 06:59:40;;;;;;;21.85;11.73;;;;;;;1.66;92.80;99642.66;1727958;82;25592;-71
2022/02/23 07:02:10;;;;;;;25.20;12.63;;;;;;;1.70;93.89;99631.72;1727948;83;27351;-72
2022/02/23 07:04:37;;;;;;;17.95;10.58;;;;;;;1.76;93.20;99630.67;1727834;83;25624;-72
2022/02/23 07:07:05;;;;;;;18.90;11.33;;;;;;;1.83;93.17;99639.73;1727875;83;25565;-71
2022/02/23 07:09:33;;;;;;;19.20;11.95;;;;;;;1.90;93.26;99642.94;1727734;83;26380;-71
2022/02/23 07:12:04;;;;;;;24.27;12.35;;;;;;;1.97;93.52;99649.34;1727887;83;25683;-71
2022/02/23 07:14:30;;;;;;;18.12;11.48;;;;;;;2.04;93.84;99645.86;1727832;83;27361;-71
2022/02/23 07:16:57;;;;;;;21.15;12.30;;;;;;;2.14;94.46;99657.06;1727908;83;25399;-72
2022/02/23 07:19:24;;;;;;;25.10;14.25;;;;;;;2.23;94.38;99664.27;1728053;83;25404;-72
2022/02/23 07:21:51;;;;;;;23.65;13.00;;;;;;;2.32;94.80;99656.52;1728006;82;25632;-72
2022/02/23 07:24:19;;;;;;;20.85;12.20;;;;;;;2.42;94.96;99664.50;1728079;83;25610;-72
2022/02/23 07:26:45;;;;;;;17.75;10.82;;;;;;;2.53;95.40;99666.61;1728078;83;27348;-72
2022/02/23 07:29:12;;;;;;;21.82;12.10;;;;;;;2.61;95.43;99668.73;1727890;83;25465;-72
2022/02/23 07:31:40;;;;;;;23.02;13.50;;;;;;;2.70;95.20;99682.86;1727973;83;25665;-72
2022/02/23 07:34:07;;;;;;;24.63;12.98;;;;;;;2.79;94.94;99690.06;1728025;83;25640;-71
2022/02/23 07:36:33;;;;;;;20.08;11.48;;;;;;;2.87;94.88;99688.69;1728076;83;25602;-71
2022/02/23 07:39:00;;;;;;;16.45;9.35;;;;;;;2.95;94.84;99680.11;1728115;83;27337;-72
2022/02/23 07:41:28;;;;;;;15.88;9.50;;;;;;;3.03;94.82;99701.98;1727954;83;25623;-72
2022/02/23 07:43:55;;;;;;;14.65;9.35;;;;;;;3.10;94.77;99707.31;1728053;83;25553;-72
2022/02/23 07:46:22;;;;;;;18.20;8.93;;;;;;;3.20;94.89;99715.02;1728562;83;25636;-72
2022/02/23 07:48:57;;;;;;;16.02;8.88;;;;;;;3.26;94.66;99714.73;1729656;83;25624;-72
2022/02/23 07:51:20;;;;;;;15.48;8.58;;;;;;;3.35;94.46;99729.66;1738569;80;27413;-72
2022/02/23 07:53:48;;;;;;;18.70;8.45;;;;;;;3.44;94.34;99739.23;1727030;83;25815;-72
2022/02/23 07:56:15;;;;;;;15.00;8.15;;;;;;;3.50;94.13;99724.23;1727150;82;25675;-72
2022/02/23 07:58:41;;;;;;;14.75;6.25;;;;;;;3.56;93.77;99742.41;1727073;83;25834;-72
2022/02/23 08:01:11;;;;;;;12.75;6.80;;;;;;;3.62;93.63;99745.30;1727130;83;25774;-72
2022/02/23 08:03:41;;;;;;;15.20;5.62;;;;;;;3.67;93.42;99745.27;1709247;83;27341;-72
2022/02/23 08:06:07;;;;;;;9.10;5.42;;;;;;;3.69;93.07;99763.17;1727030;83;25303;-72
2022/02/23 08:08:34;;;;;;;10.90;5.80;;;;;;;3.71;92.73;99768.25;1727104;82;25677;-72
2022/02/23 08:11:00;;;;;;;13.75;5.58;;;;;;;3.75;92.62;99769.31;1727060;82;25890;-72
2022/02/23 08:13:27;;;;;;;12.65;5.62;;;;;;;3.78;92.54;99769.28;1727161;83;25827;-72
2022/02/23 08:21:23;;;;;;;14.05;5.47;;;;;;;3.95;92.46;99794.34;1727118;83;25773;-71
2022/02/23 08:23:50;;;;;;;14.85;5.22;;;;;;;4.01;91.96;99801.28;1726982;83;25638;-71
2022/02/23 08:26:16;;;;;;;17.05;6.67;;;;;;;4.04;91.65;99809.55;1727059;83;25745;-71
2022/02/23 08:28:43;;;;;;;17.12;5.28;;;;;;;4.10;91.26;99806.29;1727043;83;27898;-71
2022/02/23 08:31:09;;;;;;;20.02;6.08;;;;;;;4.17;91.18;99816.17;1726921;82;25694;-72
2022/02/23 08:33:37;;;;;;;13.32;5.35;;;;;;;4.21;90.44;99818.55;1727048;83;26283;-71
2022/02/23 08:36:04;;;;;;;38.33;12.23;;;;;;;4.26;90.52;99834.58;1733912;80;25770;-71
2022/02/23 08:38:31;;;;;;;30.48;13.22;;;;;;;4.33;90.69;99834.27;1728685;83;25623;-71
2022/02/23 08:40:57;;;;;;;20.00;6.22;;;;;;;4.40;90.38;99840.09;1728680;82;27318;-70
2022/02/23 08:43:23;;;;;;;16.70;5.97;;;;;;;4.53;90.48;99837.86;1728634;83;25663;-71
2022/02/23 08:45:50;;;;;;;20.75;6.08;;;;;;;4.73;90.28;99828.32;1730924;82;25751;-71
2022/02/23 08:48:17;;;;;;;21.80;7.50;;;;;;;4.94;89.77;99831.64;1732402;82;25836;-72
2022/02/23 08:50:43;;;;;;;16.70;5.95;;;;;;;5.03;88.43;99829.93;1732481;82;25660;-71
2022/02/23 08:53:10;;;;;;;23.30;5.90;;;;;;;5.09;88.05;99827.20;1732383;82;28061;-71
2022/02/23 08:55:37;;;;;;;27.37;6.03;;;;;;;5.17;87.94;99834.63;1732217;82;25980;-71
2022/02/23 08:58:04;;;;;;;21.30;5.10;;;;;;;5.22;86.61;99849.33;1732277;82;25716;-71
2022/02/23 09:00:31;;;;;;;14.65;4.87;;;;;;;5.31;86.56;99845.48;1732207;82;25649;-71
2022/02/23 09:02:57;;;;;;;21.17;4.70;;;;;;;5.41;86.94;99846.19;1732107;82;25689;-72
2022/02/23 09:05:24;;;;;;;17.90;4.60;;;;;;;5.57;86.54;99852.17;1754607;81;27350;-72
2022/02/23 09:07:50;;;;;;;17.40;4.85;;;;;;;5.70;85.68;99857.92;1763154;81;25574;-72
2022/02/23 09:10:17;;;;;;;21.85;5.00;;;;;;;5.77;83.95;99867.76;1763333;81;25474;-72
2022/02/23 09:12:44;;;;;;;15.23;4.53;;;;;;;5.79;84.06;99870.42;1759507;80;25674;-71
2022/02/23 09:15:12;;;;;;;14.28;4.67;;;;;;;5.77;83.17;99864.55;1730529;82;25721;-72
2022/02/23 09:17:40;;;;;;;20.00;4.58;;;;;;;5.76;82.64;99873.67;1730543;82;27329;-72
2022/02/23 09:20:08;;;;;;;18.98;4.87;;;;;;;5.75;82.77;99872.06;1730467;82;26291;-72
2022/02/23 09:22:34;;;;;;;17.48;4.50;;;;;;;5.84;82.90;99868.75;1730595;82;25732;-71
2022/02/23 09:25:01;;;;;;;25.92;10.95;;;;;;;5.91;82.45;99863.86;1730501;82;26306;-73
2022/02/23 09:27:28;;;;;;;16.65;5.05;;;;;;;5.95;81.02;99872.36;1730555;82;25719;-72
2022/02/23 09:29:54;;;;;;;17.37;5.30;;;;;;;6.04;81.76;99870.42;1730394;82;27331;-73
2022/02/23 09:32:21;;;;;;;18.20;4.85;;;;;;;6.19;81.81;99874.23;1730468;82;25688;-72
2022/02/23 09:34:48;;;;;;;15.72;4.65;;;;;;;6.30;81.87;99876.23;1730407;82;25767;-72
2022/02/23 09:37:16;;;;;;;15.32;5.25;;;;;;;6.38;80.59;99881.51;1730372;82;26293;-73
2022/02/23 09:39:42;;;;;;;18.40;4.70;;;;;;;6.43;80.30;99876.06;1730389;82;25763;-71
2022/02/23 09:42:13;;;;;;;16.30;4.47;;;;;;;6.47;79.56;99894.00;1730400;82;27322;-71
2022/02/23 09:44:43;;;;;;;22.20;4.75;;;;;;;6.44;78.58;99897.82;1730352;82;25659;-71
2022/02/23 09:47:09;;;;;;;;;;;;;;;6.43;77.86;99898.89;1712294;82;25771;-72
2022/02/23 09:49:37;;;;;;;15.85;6.12;;;;;;;6.41;78.08;99903.22;1730443;82;25682;-73
2022/02/23 09:52:05;;;;;;;15.65;5.42;;;;;;;6.39;77.94;99899.23;1730408;82;25755;-72
2022/02/23 09:54:31;;;;;;;23.47;5.35;;;;;;;6.36;76.99;99909.45;1730464;82;27328;-72
2022/02/23 09:56:58;;;;;;;16.20;4.62;;;;;;;6.31;76.87;99904.70;1730267;82;25719;-70
2022/02/23 09:59:25;;;;;;;15.90;5.03;;;;;;;6.29;76.72;99912.25;1730416;82;25715;-71
2022/02/23 10:01:53;;;;;;;16.55;4.80;;;;;;;6.21;76.25;99910.20;1709396;82;25759;-72
2022/02/23 10:04:22;;;;;;;21.20;5.08;;;;;;;6.14;75.10;99922.64;1730457;82;25735;-71
2022/02/23 10:06:49;;;;;;;19.00;5.22;;;;;;;6.09;75.85;99920.02;1730525;82;28117;-71
2022/02/23 10:09:16;;;;;;;17.60;5.00;;;;;;;6.08;75.80;99920.58;1730371;82;26422;-71
2022/02/23 10:11:47;;;;;;;16.12;5.40;;;;;;;6.10;76.28;99918.95;1730415;82;25768;-71
2022/02/23 10:14:14;;;;;;;20.00;5.90;;;;;;;6.11;75.72;99921.88;1730404;82;25737;-71
2022/02/23 10:16:47;;;;;;;20.25;5.15;;;;;;;6.17;76.39;99932.81;1730416;82;25301;-73
2022/02/23 10:19:22;;;;;;;18.40;4.95;;;;;;;6.25;75.14;99936.73;1730508;82;27318;-72
2022/02/23 10:22:05;;;;;;;17.30;6.08;;;;;;;6.30;74.91;99944.72;1730289;82;25691;-72
2022/02/23 10:24:35;;;;;;;18.55;6.08;;;;;;;6.34;75.47;99940.39;1730465;82;25651;-72
2022/02/23 10:27:10;;;;;;;18.35;6.28;;;;;;;6.43;76.16;99943.23;1730342;82;25752;-70
2022/02/23 10:29:48;;;;;;;22.77;5.90;;;;;;;6.64;76.65;99942.39;1730495;82;25744;-71
2022/02/23 10:32:15;;;;;;;16.80;5.42;;;;;;;6.83;74.31;99939.16;1730338;82;27419;-72
2022/02/23 10:34:48;;;;;;;23.25;6.45;;;;;;;6.96;75.40;99952.39;1730382;82;25669;-71
2022/02/23 10:37:22;;;;;;;18.37;4.45;;;;;;;7.03;74.16;99946.64;1730344;82;26278;-71
2022/02/23 10:39:55;;;;;;;16.90;5.12;;;;;;;6.93;73.07;99959.72;1728841;82;26632;-71
2022/02/23 10:42:24;;;;;;;18.07;5.47;;;;;;;6.82;73.60;99964.98;1730581;82;25705;-71
2022/02/23 10:44:53;;;;;;;17.15;5.08;;;;;;;6.75;73.37;99977.45;1731102;82;27936;-70
2022/02/23 10:47:33;;;;;;;21.65;6.03;;;;;;;6.70;74.30;99978.87;1727751;82;25335;-69
2022/02/23 10:50:03;;;;;;;18.30;4.87;;;;;;;6.72;74.23;99975.34;1727110;83;25851;-70
2022/02/23 10:52:32;;;;;;;14.83;4.35;;;;;;;7.17;75.46;99971.72;1727253;83;25626;-70
2022/02/23 10:55:23;;;;;;;22.05;5.65;;;;;;;7.60;74.89;99972.07;1727337;83;25640;-71
2022/02/23 10:57:59;;;;;;;20.05;5.55;;;;;;;7.66;73.51;99970.87;1726723;82;27444;-70
2022/02/23 11:00:36;;;;;;;19.73;4.83;;;;;;;7.51;72.42;99983.25;1726787;82;25735;-70
2022/02/23 11:03:04;;;;;;;15.25;4.20;;;;;;;7.36;72.56;99993.75;1730441;81;25848;-69
2022/02/23 11:05:33;;;;;;;17.27;4.95;;;;;;;7.51;72.01;99989.98;1752887;81;25888;-69
2022/02/23 11:08:04;;;;;;;15.37;4.83;;;;;;;7.50;73.18;100001.30;1757284;81;26134;-69
2022/02/23 11:10:32;;;;;;;17.00;5.35;;;;;;;7.55;73.30;100004.45;1756944;81;27390;-71
2022/02/23 11:13:00;;;;;;;16.55;4.97;;;;;;;7.55;73.15;100011.19;1757000;81;25361;-71
2022/02/23 11:15:35;;;;;;;14.63;5.15;;;;;;;7.59;73.42;100008.94;1756723;81;25708;-71
2022/02/23 11:17:59;;;;;;;19.45;5.33;;;;;;;7.59;72.31;100004.90;1756500;81;26291;-71
2022/02/23 11:20:31;;;;;;;13.38;4.58;;;;;;;7.47;71.91;100003.23;1731664;81;25968;-69
2022/02/23 11:23:05;;;;;;;16.45;4.40;;;;;;;7.39;71.20;100001.20;1757982;81;27475;-72
2022/02/23 11:25:38;;;;;;;15.32;4.53;;;;;;;7.29;70.68;100006.23;1758866;81;25794;-71
2022/02/23 11:28:30;;;;;;;15.25;4.75;;;;;;;7.23;70.95;100009.53;1757779;81;25896;-70
2022/02/23 11:31:13;;;;;;;19.85;5.12;;;;;;;7.16;71.02;100017.73;1757249;81;25617;-69
2022/02/23 11:33:55;;;;;;;15.80;4.95;;;;;;;7.01;70.62;100013.37;1756974;81;25728;-69